createdAt,value
2019-06-10T00:00:50.816Z,13.67
2019-06-10T00:03:25.634Z,13.64
2019-06-10T00:06:00.865Z,13.58
2019-06-10T00:08:32.917Z,13.56
2019-06-10T00:11:05.072Z,13.53
2019-06-10T00:13:38.103Z,13.49
2019-06-10T00:16:21.614Z,13.49
2019-06-10T00:18:51.321Z,13.48
2019-06-10T00:21:25.382Z,13.46
2019-06-10T00:23:54.912Z,13.41
2019-06-10T00:26:30.825Z,13.41
2019-06-10T00:29:23.767Z,13.38
2019-06-10T00:32:06.523Z,13.38
2019-06-10T00:34:35.805Z,13.33
2019-06-10T00:37:14.338Z,13.29
2019-06-10T00:39:46.578Z,13.24
2019-06-10T00:42:21.433Z,13.23
2019-06-10T00:44:54.108Z,13.20
2019-06-10T00:47:27.454Z,13.16
2019-06-10T00:50:05.203Z,13.11
2019-06-10T00:52:38.114Z,13.11
2019-06-10T00:55:11.804Z,13.11
2019-06-10T00:57:57.861Z,13.11
2019-06-10T01:00:35.483Z,13.04
2019-06-10T01:03:15.310Z,13.05
2019-06-10T01:06:03.452Z,13.09
2019-06-10T01:08:40.572Z,13.08
2019-06-10T01:11:31.007Z,13.05
2019-06-10T01:14:01.554Z,13.03
2019-06-10T01:16:54.386Z,13.04
2019-06-10T01:19:50.901Z,13.09
2019-06-10T01:22:31.579Z,13.11
2019-06-10T01:25:05.523Z,13.07
2019-06-10T01:27:40.905Z,12.97
2019-06-10T01:30:23.518Z,12.92
2019-06-10T01:33:08.262Z,12.90
2019-06-10T01:35:48.284Z,12.91
2019-06-10T01:38:24.033Z,12.94
2019-06-10T01:41:01.705Z,12.81
2019-06-10T01:43:40.669Z,12.92
2019-06-10T01:46:14.143Z,12.97
2019-06-10T01:48:48.307Z,12.92
2019-06-10T01:51:31.538Z,12.89
2019-06-10T01:54:15.286Z,12.86
2019-06-10T01:56:51.012Z,12.82
2019-06-10T01:59:25.346Z,12.81
2019-06-10T02:02:02.883Z,12.77
2019-06-10T02:07:24.518Z,12.72
2019-06-10T02:10:01.145Z,12.69
2019-06-10T02:12:32.038Z,12.65
2019-06-10T02:15:03.409Z,12.61
2019-06-10T02:17:33.741Z,12.59
2019-06-10T02:20:04.275Z,12.56
2019-06-10T02:22:41.079Z,12.54
2019-06-10T02:25:15.121Z,12.56
2019-06-10T02:27:47.295Z,12.56
2019-06-10T02:30:50.519Z,12.56
2019-06-10T02:33:37.020Z,12.56
2019-06-10T02:36:18.215Z,12.54
2019-06-10T02:39:07.773Z,12.51
2019-06-10T02:41:44.808Z,12.45
2019-06-10T02:44:21.751Z,12.37
2019-06-10T02:47:09.015Z,12.32
2019-06-10T02:49:59.109Z,12.32
2019-06-10T02:52:32.987Z,12.32
2019-06-10T02:55:05.609Z,12.36
2019-06-10T02:57:40.280Z,12.35
2019-06-10T03:00:20.869Z,12.30
2019-06-10T03:02:55.749Z,12.26
2019-06-10T03:05:49.100Z,12.32
2019-06-10T03:08:27.449Z,12.39
2019-06-10T03:11:05.747Z,12.43
2019-06-10T03:13:45.177Z,12.47
2019-06-10T03:16:34.625Z,12.50
2019-06-10T03:19:07.399Z,12.55
2019-06-10T03:21:52.265Z,12.55
2019-06-10T03:24:25.350Z,12.58
2019-06-10T03:27:23.573Z,12.62
2019-06-10T03:30:14.779Z,12.65
2019-06-10T03:32:48.858Z,12.68
2019-06-10T03:35:27.235Z,12.74
2019-06-10T03:38:06.334Z,12.81
2019-06-10T03:40:40.580Z,12.85
2019-06-10T03:43:23.812Z,12.87
2019-06-10T03:46:09.635Z,12.86
2019-06-10T03:49:13.296Z,12.88
2019-06-10T03:51:45.742Z,12.93
2019-06-10T03:54:19.282Z,12.92
2019-06-10T03:56:56.029Z,12.99
2019-06-10T03:59:39.095Z,13.00
2019-06-10T04:02:28.494Z,13.08
2019-06-10T04:05:46.337Z,13.10
2019-06-10T04:08:52.269Z,13.15
2019-06-10T04:11:42.848Z,13.20
2019-06-10T04:14:25.076Z,13.22
2019-06-10T04:17:08.574Z,13.25
2019-06-10T04:20:09.379Z,13.19
2019-06-10T04:22:37.765Z,13.21
2019-06-10T04:25:11.996Z,13.26
2019-06-10T04:27:42.438Z,13.33
2019-06-10T04:30:16.327Z,13.41
2019-06-10T04:32:47.528Z,13.56
2019-06-10T04:35:24.383Z,13.66
2019-06-10T04:37:57.876Z,13.74
2019-06-10T04:40:44.906Z,13.83
2019-06-10T04:43:20.514Z,13.90
2019-06-10T04:45:54.600Z,13.95
2019-06-10T04:48:28.093Z,13.97
2019-06-10T04:51:08.335Z,13.95
2019-06-10T04:53:52.432Z,13.95
2019-06-10T04:56:42.881Z,13.94
2019-06-10T04:59:15.756Z,13.96
2019-06-10T05:01:53.061Z,14.03
2019-06-10T05:04:32.826Z,14.12
2019-06-10T05:07:13.851Z,14.12
2019-06-10T05:12:52.594Z,14.13
2019-06-10T05:15:48.807Z,14.21
2019-06-10T05:18:22.561Z,14.28
2019-06-10T05:20:58.779Z,14.34
2019-06-10T05:23:33.225Z,14.44
2019-06-10T05:26:06.598Z,14.51
2019-06-10T05:28:43.520Z,14.54
2019-06-10T05:31:15.055Z,14.67
2019-06-10T05:33:48.886Z,14.78
2019-06-10T05:36:20.618Z,14.80
2019-06-10T05:38:52.717Z,14.67
2019-06-10T05:41:34.827Z,14.75
2019-06-10T05:44:25.238Z,14.95
2019-06-10T05:46:58.729Z,15.11
2019-06-10T05:49:36.279Z,15.06
2019-06-10T05:52:12.629Z,15.09
2019-06-10T05:54:46.204Z,15.03
2019-06-10T05:57:33.503Z,15.04
2019-06-10T06:00:14.625Z,15.13
2019-06-10T06:05:45.535Z,15.31
2019-06-10T06:08:15.850Z,15.36
2019-06-10T06:10:59.759Z,15.30
2019-06-10T06:13:34.171Z,15.17
2019-06-10T06:16:23.082Z,15.06
2019-06-10T06:18:58.927Z,15.13
2019-06-10T06:21:34.961Z,15.00
2019-06-10T06:24:04.819Z,15.15
2019-06-10T06:26:59.500Z,15.23
2019-06-10T06:29:39.921Z,15.19
2019-06-10T06:32:13.058Z,15.26
2019-06-10T06:34:43.365Z,15.19
2019-06-10T06:37:17.866Z,15.28
2019-06-10T06:39:52.316Z,15.25
2019-06-10T06:42:23.032Z,15.23
2019-06-10T06:45:03.063Z,15.14
2019-06-10T06:47:35.700Z,15.21
2019-06-10T06:50:07.874Z,15.23
2019-06-10T06:53:12.549Z,15.38
2019-06-10T06:55:15.766Z,15.47
2019-06-10T06:57:53.356Z,15.43
2019-06-10T07:00:53.150Z,15.43
2019-06-10T07:03:12.556Z,15.29
2019-06-10T07:06:13.166Z,15.42
2019-06-10T07:09:00.225Z,15.48
2019-06-10T07:11:33.955Z,15.49
2019-06-10T07:14:05.276Z,15.60
2019-06-10T07:16:37.780Z,15.45
2019-06-10T07:19:08.948Z,15.47
2019-06-10T07:22:11.395Z,15.57
2019-06-10T07:24:36.033Z,15.45
2019-06-10T07:27:05.960Z,15.45
2019-06-10T07:29:54.393Z,15.60
2019-06-10T07:32:25.455Z,15.70
2019-06-10T07:34:55.738Z,15.93
2019-06-10T07:37:34.935Z,17.82
2019-06-10T07:40:25.667Z,19.46
2019-06-10T07:43:02.413Z,19.81
2019-06-10T07:45:33.817Z,19.31
2019-06-10T07:48:04.316Z,19.57
2019-06-10T07:50:36.532Z,20.13
2019-06-10T07:53:07.923Z,20.03
2019-06-10T07:55:41.348Z,19.38
2019-06-10T07:58:15.862Z,18.33
2019-06-10T08:00:48.498Z,17.60
2019-06-10T08:03:18.585Z,18.17
2019-06-10T08:05:52.478Z,18.09
2019-06-10T08:08:32.854Z,18.00
2019-06-10T08:11:05.723Z,18.27
2019-06-10T08:13:47.967Z,18.80
2019-06-10T08:16:18.359Z,18.49
2019-06-10T08:19:15.952Z,18.47
2019-06-10T08:21:22.696Z,18.67
2019-06-10T08:23:54.057Z,18.89
2019-06-10T08:26:23.423Z,19.28
2019-06-10T08:28:53.307Z,19.45
2019-06-10T08:31:22.931Z,19.63
2019-06-10T08:33:53.353Z,19.57
2019-06-10T08:36:23.596Z,18.64
2019-06-10T08:38:53.383Z,18.84
2019-06-10T08:41:23.312Z,18.60
2019-06-10T08:43:53.155Z,18.55
2019-06-10T08:46:22.842Z,17.93
2019-06-10T08:48:52.742Z,18.63
2019-06-10T08:51:23.713Z,18.56
2019-06-10T08:53:53.547Z,19.00
2019-06-10T08:56:23.005Z,19.08
2019-06-10T08:58:54.027Z,19.09
2019-06-10T09:01:23.757Z,18.81
2019-06-10T09:03:53.888Z,18.68
2019-06-10T09:06:23.421Z,18.85
2019-06-10T09:08:54.557Z,18.96
2019-06-10T09:11:24.810Z,19.00
2019-06-10T09:13:55.062Z,19.21
2019-06-10T09:16:26.049Z,19.29
2019-06-10T09:18:59.051Z,19.37
2019-06-10T09:21:35.096Z,19.37
2019-06-10T09:24:13.043Z,19.58
2019-06-10T09:26:54.820Z,19.67
2019-06-10T09:29:32.732Z,19.04
2019-06-10T09:32:03.531Z,18.68
2019-06-10T09:34:41.376Z,18.92
2019-06-10T09:37:16.497Z,18.56
2019-06-10T09:39:59.229Z,19.03
2019-06-10T09:42:33.299Z,19.33
2019-06-10T09:45:03.712Z,19.12
2019-06-10T09:47:44.502Z,18.80
2019-06-10T09:50:16.104Z,18.89
2019-06-10T09:52:50.446Z,18.83
2019-06-10T09:55:23.345Z,18.88
2019-06-10T09:57:59.968Z,19.02
2019-06-10T10:00:48.499Z,19.21
2019-06-10T10:03:16.635Z,19.30
2019-06-10T10:05:59.444Z,19.23
2019-06-10T10:08:32.703Z,19.06
2019-06-10T10:11:03.264Z,19.22
2019-06-10T10:13:35.336Z,19.02
2019-06-10T10:16:10.275Z,19.09
2019-06-10T10:18:47.276Z,18.86
2019-06-10T10:21:57.141Z,18.61
2019-06-10T10:24:33.447Z,18.89
2019-06-10T10:27:09.475Z,19.08
2019-06-10T10:29:47.162Z,19.02
2019-06-10T10:32:23.162Z,19.18
2019-06-10T10:34:56.577Z,18.94
2019-06-10T10:37:35.866Z,19.01
2019-06-10T10:40:07.588Z,18.75
2019-06-10T10:42:44.997Z,18.89
2019-06-10T10:45:13.325Z,18.86
2019-06-10T10:47:47.136Z,18.99
2019-06-10T10:50:22.522Z,19.04
2019-06-10T10:52:55.099Z,19.04
2019-06-10T10:55:28.183Z,19.31
2019-06-10T10:58:19.853Z,19.49
2019-06-10T11:00:57.680Z,19.61
2019-06-10T11:03:26.258Z,19.73
2019-06-10T11:06:00.931Z,19.92
2019-06-10T11:08:35.297Z,19.88
2019-06-10T11:11:13.599Z,19.64
2019-06-10T11:13:47.380Z,19.38
2019-06-10T11:16:27.415Z,19.64
2019-06-10T11:19:02.549Z,19.76
2019-06-10T11:21:33.030Z,19.76
2019-06-10T11:24:04.836Z,19.80
2019-06-10T11:26:38.835Z,19.85
2019-06-10T11:29:11.236Z,20.00
2019-06-10T11:31:46.295Z,20.01
2019-06-10T11:34:23.475Z,19.62
2019-06-10T11:36:55.087Z,19.71
2019-06-10T11:39:26.699Z,19.65
2019-06-10T11:41:57.955Z,19.55
2019-06-10T11:44:33.974Z,19.61
2019-06-10T11:47:06.025Z,19.61
2019-06-10T11:49:36.284Z,19.66
2019-06-10T11:52:07.777Z,19.71
2019-06-10T11:54:53.654Z,19.98
2019-06-10T11:57:09.009Z,19.85
2019-06-10T11:59:39.144Z,19.79
2019-06-10T12:02:09.123Z,19.88
2019-06-10T12:04:39.042Z,19.85
2019-06-10T12:07:09.056Z,19.93
2019-06-10T12:09:44.175Z,19.95
2019-06-10T12:12:16.054Z,20.07
2019-06-10T12:14:46.005Z,20.00
2019-06-10T12:17:40.089Z,20.17
2019-06-10T12:19:56.480Z,20.30
2019-06-10T12:22:33.085Z,20.29
2019-06-10T12:25:30.537Z,20.33
2019-06-10T12:27:38.057Z,20.49
2019-06-10T12:30:14.201Z,20.62
2019-06-10T12:32:45.451Z,20.23
2019-06-10T12:41:23.206Z,20.38
2019-06-10T12:43:54.776Z,20.31
2019-06-10T12:46:26.658Z,20.54
2019-06-10T12:49:01.714Z,20.14
2019-06-10T12:51:34.049Z,20.17
2019-06-10T12:54:06.228Z,20.38
2019-06-10T12:56:42.358Z,20.60
2019-06-10T12:59:18.027Z,20.59
2019-06-10T13:01:52.936Z,20.45
2019-06-10T13:04:22.173Z,20.93
2019-06-10T13:06:55.967Z,21.19
2019-06-10T13:09:34.384Z,20.85
2019-06-10T13:12:05.379Z,21.16
2019-06-10T13:14:36.793Z,21.23
2019-06-10T13:17:15.972Z,21.47
2019-06-10T13:19:47.472Z,21.53
2019-06-10T13:22:19.805Z,21.34
2019-06-10T13:24:53.564Z,21.58
2019-06-10T13:27:23.689Z,21.72
2019-06-10T13:29:59.893Z,21.57
2019-06-10T13:32:32.460Z,21.11
2019-06-10T13:35:12.458Z,21.43
2019-06-10T13:37:45.263Z,21.19
2019-06-10T13:40:26.369Z,20.93
2019-06-10T13:42:57.939Z,21.00
2019-06-10T13:45:34.523Z,20.52
2019-06-10T13:48:11.533Z,20.79
2019-06-10T13:50:42.232Z,21.07
2019-06-10T13:53:14.180Z,21.08
2019-06-10T13:55:47.088Z,21.31
2019-06-10T13:58:23.182Z,21.09
2019-06-10T14:01:04.053Z,21.16
2019-06-10T14:03:35.557Z,21.36
2019-06-10T14:06:32.325Z,21.23
2019-06-10T14:08:43.821Z,21.06
2019-06-10T14:11:16.145Z,20.99
2019-06-10T14:13:45.813Z,21.20
2019-06-10T14:16:16.277Z,21.29
2019-06-10T14:18:56.165Z,21.36
2019-06-10T14:21:33.076Z,21.02
2019-06-10T14:24:06.290Z,21.04
2019-06-10T14:26:48.639Z,21.18
2019-06-10T14:29:18.391Z,21.34
2019-06-10T14:31:58.931Z,21.13
2019-06-10T14:34:34.438Z,21.13
2019-06-10T14:37:07.730Z,21.19
2019-06-10T14:39:52.923Z,21.23
2019-06-10T14:42:32.205Z,21.33
2019-06-10T14:45:06.695Z,21.43
2019-06-10T14:47:36.748Z,21.47
2019-06-10T14:50:08.751Z,21.55
2019-06-10T14:52:38.540Z,21.49
2019-06-10T14:55:09.305Z,21.57
2019-06-10T14:57:42.615Z,21.09
2019-06-10T15:00:16.119Z,21.23
2019-06-10T15:02:43.964Z,21.34
2019-06-10T15:05:16.113Z,21.14
2019-06-10T15:07:46.602Z,21.21
2019-06-10T15:10:17.886Z,21.34
2019-06-10T15:12:48.820Z,21.35
2019-06-10T15:15:20.438Z,21.44
2019-06-10T15:17:52.489Z,21.42
2019-06-10T15:20:22.762Z,20.84
2019-06-10T15:22:52.859Z,21.39
2019-06-10T15:25:27.552Z,21.56
2019-06-10T15:27:54.675Z,21.44
2019-06-10T15:30:28.077Z,21.29
2019-06-10T15:33:02.881Z,21.23
2019-06-10T15:35:34.562Z,21.33
2019-06-10T15:38:05.418Z,21.14
2019-06-10T15:40:35.240Z,20.89
2019-06-10T15:43:09.623Z,20.85
2019-06-10T15:45:45.576Z,20.95
2019-06-10T15:48:18.840Z,20.71
2019-06-10T15:50:52.103Z,20.50
2019-06-10T15:53:25.392Z,20.61
2019-06-10T15:56:18.220Z,20.39
2019-06-10T15:58:26.815Z,20.29
2019-06-10T16:01:02.552Z,20.38
2019-06-10T16:03:33.066Z,20.48
2019-06-10T16:06:03.318Z,20.40
2019-06-10T16:08:33.576Z,20.36
2019-06-10T16:11:03.374Z,20.45
2019-06-10T16:13:33.035Z,20.39
2019-06-10T16:16:03.621Z,20.31
2019-06-10T16:18:37.763Z,20.25
2019-06-10T16:21:15.107Z,20.31
2019-06-10T16:23:53.398Z,20.33
2019-06-10T16:26:36.469Z,20.20
2019-06-10T16:29:08.696Z,20.19
2019-06-10T16:31:42.709Z,20.04
2019-06-10T16:34:12.913Z,20.23
2019-06-10T16:36:45.287Z,20.25
2019-06-10T16:39:19.015Z,20.14
2019-06-10T16:41:54.181Z,19.95
2019-06-10T16:44:34.642Z,20.07
2019-06-10T16:47:05.178Z,20.08
2019-06-10T16:49:38.565Z,19.96
2019-06-10T16:52:09.143Z,19.91
2019-06-10T16:54:41.938Z,20.08
2019-06-10T16:57:27.275Z,19.95
2019-06-10T16:59:57.081Z,19.88
2019-06-10T17:02:30.075Z,19.89
2019-06-10T17:05:03.154Z,19.70
2019-06-10T17:07:34.198Z,19.71
2019-06-10T17:10:06.643Z,19.59
2019-06-10T17:12:38.837Z,19.55
2019-06-10T17:15:12.900Z,19.54
2019-06-10T17:17:45.688Z,19.52
2019-06-10T17:20:23.598Z,19.31
2019-06-10T17:22:54.412Z,19.34
2019-06-10T17:25:26.908Z,19.42
2019-06-10T17:28:15.135Z,19.37
2019-06-10T17:30:30.964Z,19.46
2019-06-10T17:33:04.238Z,19.50
2019-06-10T17:35:36.830Z,19.46
2019-06-10T17:38:12.216Z,19.57
2019-06-10T17:40:44.675Z,19.51
2019-06-10T17:43:14.224Z,19.61
2019-06-10T17:45:44.468Z,19.66
2019-06-10T17:48:16.500Z,19.76
2019-06-10T17:50:52.273Z,19.84
2019-06-10T17:53:24.613Z,19.89
2019-06-10T17:55:59.333Z,19.77
2019-06-10T17:58:43.355Z,19.76
2019-06-10T18:01:04.099Z,19.71
2019-06-10T18:03:37.757Z,19.79
2019-06-10T18:06:09.330Z,19.80
2019-06-10T18:08:47.555Z,19.79
2019-06-10T18:11:18.494Z,19.85
2019-06-10T18:13:56.700Z,19.82
2019-06-10T18:16:28.262Z,19.78
2019-06-10T18:18:59.172Z,19.78
2019-06-10T18:21:34.706Z,19.85
2019-06-10T18:24:08.466Z,19.83
2019-06-10T18:26:44.874Z,19.75
2019-06-10T18:29:22.792Z,19.66
2019-06-10T18:31:55.010Z,19.69
2019-06-10T18:34:25.689Z,19.56
2019-06-10T18:36:59.084Z,19.67
2019-06-10T18:39:59.515Z,19.70
2019-06-10T18:42:33.135Z,19.75
2019-06-10T18:45:04.805Z,19.75
2019-06-10T18:47:37.264Z,19.70
2019-06-10T18:50:09.232Z,19.65
2019-06-10T18:52:43.132Z,19.63
2019-06-10T18:55:12.707Z,19.60
2019-06-10T18:57:45.426Z,19.51
2019-06-10T19:00:15.672Z,19.42
2019-06-10T19:02:46.086Z,19.47
2019-06-10T19:05:17.420Z,19.43
2019-06-10T19:07:52.888Z,19.36
2019-06-10T19:10:24.185Z,19.34
2019-06-10T19:13:02.331Z,19.32
2019-06-10T19:15:31.904Z,19.26
2019-06-10T19:18:06.478Z,19.19
2019-06-10T19:20:45.266Z,19.17
2019-06-10T19:23:18.191Z,19.09
2019-06-10T19:26:05.105Z,19.01
2019-06-10T19:28:38.757Z,18.98
2019-06-10T19:31:11.200Z,18.90
2019-06-10T19:33:45.606Z,18.84
2019-06-10T19:36:19.717Z,18.84
2019-06-10T19:38:50.003Z,18.79
2019-06-10T19:41:22.397Z,18.85
2019-06-10T19:43:56.070Z,18.80
2019-06-10T19:46:27.926Z,18.76
2019-06-10T19:49:03.263Z,18.69
2019-06-10T19:51:48.977Z,18.66
2019-06-10T19:54:19.757Z,18.62
2019-06-10T19:56:52.340Z,18.59
2019-06-10T19:59:28.099Z,18.57
2019-06-10T20:01:59.094Z,18.54
2019-06-10T20:04:35.918Z,18.50
2019-06-10T20:07:20.136Z,18.47
2019-06-10T20:09:52.222Z,18.43
2019-06-10T20:12:25.825Z,18.39
2019-06-10T20:14:56.991Z,18.34
2019-06-10T20:17:32.770Z,18.29
2019-06-10T20:20:09.228Z,18.26
2019-06-10T20:22:43.614Z,18.23
2019-06-10T20:25:17.280Z,18.16
2019-06-10T20:27:59.347Z,18.15
2019-06-10T20:30:33.240Z,18.13
2019-06-10T20:33:05.858Z,18.15
2019-06-10T20:35:58.673Z,18.15
2019-06-10T20:38:38.487Z,18.13
2019-06-10T20:41:12.701Z,18.09
2019-06-10T20:43:44.382Z,18.06
2019-06-10T20:46:18.876Z,18.06
2019-06-10T20:48:54.570Z,18.05
2019-06-10T20:51:27.528Z,18.04
2019-06-10T20:54:02.632Z,17.99
2019-06-10T20:56:41.091Z,17.92
2019-06-10T20:59:13.260Z,17.88
2019-06-10T21:01:49.155Z,17.82
2019-06-10T21:04:27.551Z,17.77
2019-06-10T21:07:05.111Z,17.71
2019-06-10T21:09:39.759Z,17.63
2019-06-10T21:12:13.020Z,17.62
2019-06-10T21:14:45.675Z,17.58
2019-06-10T21:17:18.988Z,17.59
2019-06-10T21:19:53.760Z,17.53
2019-06-10T21:22:47.531Z,17.52
2019-06-10T21:25:24.643Z,17.50
2019-06-10T21:28:02.740Z,17.47
2019-06-10T21:30:49.658Z,17.48
2019-06-10T21:33:43.799Z,17.47
2019-06-10T21:36:18.833Z,17.48
2019-06-10T21:38:56.894Z,17.47
2019-06-10T21:41:37.007Z,17.48
2019-06-10T21:44:14.997Z,17.52
2019-06-10T21:46:50.329Z,17.56
2019-06-10T21:49:28.521Z,17.56
2019-06-10T21:52:02.819Z,17.56
2019-06-10T21:57:45.638Z,17.51
2019-06-10T22:00:52.047Z,17.51
2019-06-10T22:03:12.545Z,17.40
2019-06-10T22:06:06.460Z,17.36
2019-06-10T22:08:50.058Z,17.32
2019-06-10T22:11:31.365Z,17.31
2019-06-10T22:14:17.097Z,17.24
2019-06-10T22:16:52.907Z,17.24
2019-06-10T22:19:26.562Z,17.26
2019-06-10T22:22:18.437Z,17.27
2019-06-10T22:24:53.620Z,17.22
2019-06-10T22:27:47.848Z,17.18
2019-06-10T22:30:20.074Z,17.12
2019-06-10T22:33:06.830Z,17.06
2019-06-10T22:36:06.024Z,17.03
2019-06-10T22:38:43.018Z,17.04
2019-06-10T22:41:22.556Z,17.00
2019-06-10T22:43:55.780Z,16.97
2019-06-10T22:46:32.196Z,16.98
2019-06-10T22:49:05.196Z,16.97
2019-06-10T22:51:42.874Z,16.92
2019-06-10T22:54:21.182Z,16.91
2019-06-10T22:56:58.153Z,16.90
2019-06-10T22:59:48.649Z,16.89
2019-06-10T23:05:33.102Z,16.83
2019-06-10T23:08:12.605Z,16.82
2019-06-10T23:11:03.311Z,16.80
2019-06-10T23:13:50.637Z,16.72
2019-06-10T23:16:23.888Z,16.68
2019-06-10T23:18:59.874Z,16.64
2019-06-10T23:21:35.897Z,16.59
2019-06-10T23:24:13.465Z,16.59
2019-06-10T23:26:53.764Z,16.58
2019-06-10T23:29:36.132Z,16.60
2019-06-10T23:32:42.237Z,16.59
2019-06-10T23:35:32.177Z,16.54
2019-06-10T23:38:08.376Z,16.50
2019-06-10T23:41:01.503Z,16.48
2019-06-10T23:43:42.338Z,16.48
2019-06-10T23:46:38.351Z,16.53
2019-06-10T23:49:35.965Z,16.48
2019-06-10T23:52:08.019Z,16.44
2019-06-10T23:58:17.794Z,16.36
